Terminal Aerodrome Forecast
Issued by NWS Nashville, TN

Home | Current Version | Previous Version | Text Only | Print | Product List | Glossary On
Versions: 1 2 3 4 5 6 7 8 9 10 11 12 13 14 15 16 17 18 19 20 21 22 23 24 25 26 27 28 29 30 31 32 33 34 35 36 37 38 39
114
FTUS44 KOHX 170906 AAC
TAFCSV
TAF AMD
KCSV 170906Z 1709/1806 18010G20KT 6SM -SHRA SCT015 BKN050
      WS020/19040KT
      TEMPO 1709/1712 3SM -SHRA BR BKN015
     FM171200 19010G15KT 6SM -SHRA OVC030 WS020/20045KT
     FM171400 20011G17KT 3SM -SHRA OVC015
     FM172100 22010G15KT 2SM SHRA OVC004=

USA.gov is the U.S. government's official web portal to all federal, state and local government web resources and services.